createdAt,value
2018-02-18T00:02:06.961Z,23.02
2018-02-18T00:04:35.357Z,24.00
2018-02-18T00:07:04.745Z,26.30
2018-02-18T00:09:33.198Z,23.60
2018-02-18T00:12:02.330Z,25.60
2018-02-18T00:14:42.249Z,24.30
2018-02-18T00:17:10.667Z,23.30
2018-02-18T00:19:39.273Z,22.90
2018-02-18T00:22:07.827Z,24.93
2018-02-18T00:24:36.303Z,23.37
2018-02-18T00:27:04.958Z,24.73
2018-02-18T00:29:34.280Z,25.13
2018-02-18T00:32:03.125Z,24.05
2018-02-18T00:34:31.523Z,23.57
2018-02-18T00:36:59.726Z,24.17
2018-02-18T00:39:28.914Z,22.83
2018-02-18T00:41:57.586Z,22.33
2018-02-18T00:44:26.254Z,26.15
2018-02-18T00:46:54.458Z,25.17
2018-02-18T00:49:23.159Z,27.40
2018-02-18T00:51:51.822Z,23.17
2018-02-18T00:54:20.206Z,24.60
2018-02-18T00:56:48.878Z,23.85
2018-02-18T00:59:17.536Z,24.92
2018-02-18T01:01:46.200Z,26.05
2018-02-18T01:04:15.368Z,25.97
2018-02-18T01:06:44.622Z,25.27
2018-02-18T01:09:14.052Z,26.10
2018-02-18T01:11:42.453Z,24.67
2018-02-18T01:14:10.934Z,25.17
2018-02-18T01:16:39.334Z,26.00
2018-02-18T01:19:08.495Z,24.63
2018-02-18T01:21:36.721Z,27.00
2018-02-18T01:24:05.373Z,25.20
2018-02-18T01:26:33.776Z,26.23
2018-02-18T01:29:02.379Z,27.03
2018-02-18T01:31:30.897Z,26.33
2018-02-18T01:33:59.547Z,25.15
2018-02-18T01:36:28.023Z,25.07
2018-02-18T01:38:56.411Z,27.07
2018-02-18T01:41:25.608Z,26.50
2018-02-18T01:43:54.151Z,25.33
2018-02-18T01:46:23.300Z,25.10
2018-02-18T01:48:51.694Z,25.47
2018-02-18T01:51:20.346Z,26.17
2018-02-18T01:53:48.760Z,25.00
2018-02-18T01:56:17.146Z,25.30
2018-02-18T01:58:45.818Z,25.73
2018-02-18T02:01:14.201Z,25.20
2018-02-18T02:03:42.905Z,25.37
2018-02-18T02:06:12.060Z,26.13
2018-02-18T02:08:40.691Z,24.60
2018-02-18T02:11:09.075Z,26.00
2018-02-18T02:13:37.822Z,26.10
2018-02-18T02:16:06.888Z,26.05
2018-02-18T02:18:35.802Z,26.37
2018-02-18T02:21:04.468Z,26.35
2018-02-18T02:23:32.853Z,27.17
2018-02-18T02:26:01.254Z,26.30
2018-02-18T02:28:29.449Z,24.53
2018-02-18T02:30:57.888Z,27.43
2018-02-18T02:33:26.288Z,24.77
2018-02-18T02:35:55.683Z,27.43
2018-02-18T02:38:24.191Z,26.62
2018-02-18T02:40:52.519Z,27.73
2018-02-18T02:43:20.895Z,26.50
2018-02-18T02:45:49.308Z,25.90
2018-02-18T02:48:17.972Z,26.70
2018-02-18T02:50:46.362Z,26.70
2018-02-18T02:53:15.030Z,25.00
2018-02-18T02:55:43.421Z,23.03
2018-02-18T02:58:12.091Z,25.57
2018-02-18T03:00:40.767Z,24.70
2018-02-18T03:03:09.986Z,25.50
2018-02-18T03:05:38.974Z,28.40
2018-02-18T03:08:07.814Z,26.30
2018-02-18T03:10:35.894Z,26.80
2018-02-18T03:13:04.270Z,27.43
2018-02-18T03:15:32.650Z,24.67
2018-02-18T03:18:02.079Z,24.48
2018-02-18T03:20:30.487Z,24.50
2018-02-18T03:22:58.869Z,25.77
2018-02-18T03:25:27.529Z,25.55
2018-02-18T03:27:56.185Z,27.00
2018-02-18T03:30:25.002Z,27.27
2018-02-18T03:32:53.664Z,25.23
2018-02-18T03:35:22.086Z,27.27
2018-02-18T03:37:51.655Z,24.80
2018-02-18T03:40:20.055Z,27.33
2018-02-18T03:42:48.712Z,24.87
2018-02-18T03:45:17.428Z,25.93
2018-02-18T03:47:45.811Z,24.20
2018-02-18T03:50:14.483Z,25.85
2018-02-18T03:52:43.131Z,24.90
2018-02-18T03:55:11.522Z,24.53
2018-02-18T03:57:39.898Z,25.90
2018-02-18T04:00:09.333Z,24.40
2018-02-18T04:02:37.842Z,26.20
2018-02-18T04:05:07.251Z,26.13
2018-02-18T04:07:35.958Z,27.37
2018-02-18T04:10:05.402Z,24.47
2018-02-18T04:12:34.111Z,24.10
2018-02-18T04:15:02.446Z,25.15
2018-02-18T04:17:31.094Z,24.42
2018-02-18T04:20:00.120Z,26.50
2018-02-18T04:22:28.776Z,25.70
2018-02-18T04:24:58.203Z,27.13
2018-02-18T04:27:26.602Z,26.67
2018-02-18T04:29:55.262Z,25.62
2018-02-18T04:32:23.791Z,26.20
2018-02-18T04:34:52.940Z,27.80
2018-02-18T04:37:21.342Z,27.93
2018-02-18T04:39:49.722Z,26.60
2018-02-18T04:42:18.390Z,26.20
2018-02-18T04:44:46.771Z,26.77
2018-02-18T04:47:15.369Z,24.53
2018-02-18T04:49:44.428Z,27.37
2018-02-18T04:52:13.861Z,27.37
2018-02-18T04:54:42.361Z,25.13
2018-02-18T04:57:11.034Z,26.62
2018-02-18T04:59:39.539Z,28.00
2018-02-18T05:02:08.721Z,25.60
2018-02-18T05:04:37.348Z,26.27
2018-02-18T05:07:05.737Z,28.67
2018-02-18T05:09:34.427Z,27.20
2018-02-18T05:12:02.831Z,28.53
2018-02-18T05:14:31.166Z,27.85
2018-02-18T05:16:59.558Z,25.60
2018-02-18T05:19:27.942Z,28.50
2018-02-18T05:21:56.342Z,27.83
2018-02-18T05:24:24.754Z,27.60
2018-02-18T05:26:54.222Z,27.97
2018-02-18T05:29:22.959Z,30.77
2018-02-18T05:31:51.246Z,25.57
2018-02-18T05:34:19.985Z,25.80
2018-02-18T05:36:49.562Z,26.67
2018-02-18T05:39:17.954Z,26.27
2018-02-18T05:41:46.338Z,27.80
2018-02-18T05:44:14.731Z,26.07
2018-02-18T05:46:43.180Z,27.50
2018-02-18T05:49:11.785Z,27.03
2018-02-18T05:51:40.165Z,25.67
2018-02-18T05:54:08.561Z,28.73
2018-02-18T05:56:38.549Z,27.60
2018-02-18T05:59:07.229Z,26.93
2018-02-18T06:01:35.633Z,28.90
2018-02-18T06:04:04.293Z,26.37
2018-02-18T06:06:33.229Z,26.55
2018-02-18T06:09:01.901Z,29.27
2018-02-18T06:11:30.554Z,26.92
2018-02-18T06:13:58.937Z,27.37
2018-02-18T06:16:27.599Z,25.83
2018-02-18T06:18:56.257Z,25.67
2018-02-18T06:21:24.646Z,26.47
2018-02-18T06:23:53.365Z,28.10
2018-02-18T06:26:22.018Z,28.37
2018-02-18T06:28:50.409Z,25.63
2018-02-18T06:31:19.387Z,28.17
2018-02-18T06:33:47.771Z,27.90
2018-02-18T06:36:16.442Z,31.02
2018-02-18T06:38:45.024Z,27.40
2018-02-18T06:41:13.715Z,28.90
2018-02-18T06:43:42.102Z,29.93
2018-02-18T06:46:10.750Z,30.40
2018-02-18T06:48:40.173Z,33.07
2018-02-18T06:51:09.602Z,30.98
2018-02-18T06:53:38.094Z,29.57
2018-02-18T06:56:07.278Z,33.83
2018-02-18T06:58:35.954Z,32.55
2018-02-18T07:01:04.351Z,30.77
2018-02-18T07:03:33.014Z,31.80
2018-02-18T07:06:01.682Z,31.40
2018-02-18T07:08:30.221Z,30.45
2018-02-18T07:10:58.915Z,32.57
2018-02-18T07:13:27.574Z,30.42
2018-02-18T07:15:56.755Z,29.57
2018-02-18T07:18:25.153Z,30.67
2018-02-18T07:20:54.890Z,33.03
2018-02-18T07:23:24.252Z,31.83
2018-02-18T07:25:52.821Z,31.40
2018-02-18T07:28:21.494Z,30.50
2018-02-18T07:30:50.701Z,29.57
2018-02-18T07:33:19.365Z,31.98
2018-02-18T07:35:47.947Z,32.00
2018-02-18T07:38:16.348Z,31.87
2018-02-18T07:40:44.751Z,29.93
2018-02-18T07:43:14.041Z,32.10
2018-02-18T07:45:42.788Z,30.37
2018-02-18T07:48:11.316Z,29.43
2018-02-18T07:50:39.978Z,30.75
2018-02-18T07:53:08.411Z,33.50
2018-02-18T07:55:37.078Z,30.93
2018-02-18T07:58:06.243Z,30.70
2018-02-18T08:00:34.910Z,30.27
2018-02-18T08:03:04.372Z,28.87
2018-02-18T08:05:33.520Z,30.87
2018-02-18T08:08:01.922Z,32.13
2018-02-18T08:10:31.413Z,31.55
2018-02-18T08:12:59.809Z,33.57
2018-02-18T08:15:28.462Z,35.95
2018-02-18T08:17:57.132Z,34.50
2018-02-18T08:20:26.430Z,33.53
2018-02-18T08:22:55.153Z,30.60
2018-02-18T08:25:23.943Z,30.23
2018-02-18T08:27:52.374Z,29.60
2018-02-18T08:30:21.993Z,29.33
2018-02-18T08:32:50.491Z,32.10
2018-02-18T08:35:19.150Z,30.98
2018-02-18T08:37:47.630Z,33.37
2018-02-18T08:40:17.038Z,31.77
2018-02-18T08:42:45.486Z,33.30
2018-02-18T08:45:14.634Z,31.40
2018-02-18T08:47:43.210Z,35.03
2018-02-18T08:50:11.877Z,33.80
2018-02-18T08:52:41.314Z,32.97
2018-02-18T08:55:10.002Z,34.40
2018-02-18T08:57:38.689Z,34.20
2018-02-18T09:00:07.070Z,34.70
2018-02-18T09:02:35.461Z,35.50
2018-02-18T09:05:04.278Z,34.53
2018-02-18T09:07:32.931Z,36.70
2018-02-18T09:10:01.640Z,35.50
2018-02-18T09:12:30.522Z,32.73
2018-02-18T09:14:59.130Z,35.83
2018-02-18T09:17:27.524Z,36.37
2018-02-18T09:19:55.918Z,34.80
2018-02-18T09:22:24.651Z,34.88
2018-02-18T09:24:53.313Z,38.25
2018-02-18T09:27:21.979Z,36.63
2018-02-18T09:29:50.377Z,34.77
2018-02-18T09:32:19.534Z,35.27
2018-02-18T09:34:48.845Z,32.67
2018-02-18T09:37:17.501Z,36.50
2018-02-18T09:39:45.891Z,36.00
2018-02-18T09:42:15.313Z,35.63
2018-02-18T09:44:43.881Z,34.53
2018-02-18T09:47:12.355Z,36.60
2018-02-18T09:49:40.779Z,35.80
2018-02-18T09:52:09.155Z,35.73
2018-02-18T09:54:37.855Z,36.27
2018-02-18T09:57:06.995Z,36.00
2018-02-18T09:59:35.394Z,35.10
2018-02-18T10:02:03.882Z,36.83
2018-02-18T10:04:33.182Z,36.87
2018-02-18T10:07:02.170Z,36.93
2018-02-18T10:09:30.646Z,33.70
2018-02-18T10:11:59.334Z,35.40
2018-02-18T10:14:27.738Z,36.97
2018-02-18T10:16:56.310Z,35.83
2018-02-18T10:19:25.168Z,33.15
2018-02-18T10:21:54.770Z,32.20
2018-02-18T10:24:23.170Z,32.17
2018-02-18T10:26:51.558Z,33.20
2018-02-18T10:29:20.713Z,30.50
2018-02-18T10:31:49.414Z,30.93
2018-02-18T10:34:18.063Z,30.65
2018-02-18T10:36:46.824Z,31.60
2018-02-18T10:39:15.981Z,30.13
2018-02-18T10:41:44.183Z,30.10
2018-02-18T10:44:12.561Z,28.10
2018-02-18T10:46:41.002Z,29.10
2018-02-18T10:49:09.393Z,30.97
2018-02-18T10:51:38.059Z,30.73
2018-02-18T10:54:07.863Z,26.27
2018-02-18T10:56:36.245Z,31.00
2018-02-18T10:59:04.626Z,30.30
2018-02-18T11:01:34.055Z,29.67
2018-02-18T11:04:02.710Z,29.60
2018-02-18T11:06:32.144Z,27.13
2018-02-18T11:09:00.859Z,30.50
2018-02-18T11:11:29.487Z,33.50
2018-02-18T11:13:58.010Z,29.93
2018-02-18T11:16:26.678Z,32.10
2018-02-18T11:18:55.127Z,31.40
2018-02-18T11:21:23.531Z,30.30
2018-02-18T11:23:52.178Z,31.77
2018-02-18T11:26:21.402Z,29.70
2018-02-18T11:28:50.252Z,30.48
2018-02-18T11:31:18.922Z,29.73
2018-02-18T11:33:48.070Z,31.40
2018-02-18T11:36:16.474Z,29.53
2018-02-18T11:38:44.856Z,32.87
2018-02-18T11:41:13.313Z,30.40
2018-02-18T11:43:41.703Z,29.40
2018-02-18T11:46:10.103Z,28.77
2018-02-18T11:48:38.757Z,29.60
2018-02-18T11:51:07.152Z,28.30
2018-02-18T11:53:35.571Z,29.60
2018-02-18T11:56:05.626Z,27.65
2018-02-18T11:58:35.547Z,28.37
2018-02-18T12:01:04.225Z,30.07
2018-02-18T12:03:32.893Z,27.17
2018-02-18T12:06:02.473Z,27.60
2018-02-18T12:08:30.851Z,28.43
2018-02-18T12:10:59.232Z,28.00
2018-02-18T12:13:27.719Z,29.30
2018-02-18T12:15:56.098Z,28.20
2018-02-18T12:18:24.488Z,26.20
2018-02-18T12:20:52.910Z,28.60
2018-02-18T12:23:21.446Z,29.23
2018-02-18T12:25:50.871Z,28.65
2018-02-18T12:28:19.466Z,27.60
2018-02-18T12:30:47.850Z,26.60
2018-02-18T12:33:16.286Z,23.13
2018-02-18T12:35:45.594Z,20.50
2018-02-18T12:38:15.022Z,21.83
2018-02-18T12:40:43.406Z,19.77
2018-02-18T12:43:11.794Z,20.43
2018-02-18T12:45:41.808Z,19.87
2018-02-18T12:48:10.204Z,19.47
2018-02-18T12:50:39.404Z,20.63
2018-02-18T12:53:08.217Z,21.85
2018-02-18T12:55:36.630Z,22.90
2018-02-18T12:58:05.286Z,21.73
2018-02-18T13:00:33.909Z,21.50
2018-02-18T13:03:02.302Z,20.03
2018-02-18T13:05:30.743Z,21.40
2018-02-18T13:07:59.421Z,23.38
2018-02-18T13:10:28.096Z,23.73
2018-02-18T13:12:56.491Z,21.93
2018-02-18T13:15:24.881Z,21.15
2018-02-18T13:17:53.271Z,21.87
2018-02-18T13:20:21.955Z,21.67
2018-02-18T13:22:50.555Z,19.87
2018-02-18T13:25:20.239Z,19.37
2018-02-18T13:27:48.782Z,21.50
2018-02-18T13:30:18.222Z,18.10
2018-02-18T13:32:47.845Z,17.77
2018-02-18T13:35:16.463Z,16.53
2018-02-18T13:37:44.941Z,16.20
2018-02-18T13:40:13.466Z,16.40
2018-02-18T13:42:42.066Z,17.10
2018-02-18T13:45:10.918Z,17.23
2018-02-18T13:47:39.575Z,15.90
2018-02-18T13:50:09.025Z,17.27
2018-02-18T13:52:37.398Z,15.47
2018-02-18T13:55:06.058Z,18.20
2018-02-18T13:57:34.474Z,17.43
2018-02-18T14:00:03.019Z,15.93
2018-02-18T14:02:32.648Z,16.33
2018-02-18T14:05:01.042Z,15.80
2018-02-18T14:07:29.702Z,14.55
2018-02-18T14:09:58.538Z,14.60
2018-02-18T14:12:27.464Z,14.93
2018-02-18T14:14:56.890Z,13.60
2018-02-18T14:17:25.281Z,13.97
2018-02-18T14:19:53.693Z,12.50
2018-02-18T14:22:22.886Z,14.23
2018-02-18T14:24:52.030Z,11.77
2018-02-18T14:27:20.487Z,14.00
2018-02-18T14:29:48.889Z,12.07
2018-02-18T14:32:18.130Z,12.52
2018-02-18T14:34:47.594Z,11.77
2018-02-18T14:37:16.245Z,11.07
2018-02-18T14:39:44.683Z,11.90
2018-02-18T14:42:24.516Z,11.77
2018-02-18T14:45:04.418Z,11.73
2018-02-18T14:47:43.921Z,14.40
2018-02-18T14:50:23.779Z,14.23
2018-02-18T14:53:03.606Z,14.85
2018-02-18T14:58:36.802Z,13.63
2018-02-18T15:01:05.370Z,15.10
2018-02-18T15:03:33.754Z,17.27
2018-02-18T15:06:02.382Z,15.20
2018-02-18T15:08:31.534Z,14.60
2018-02-18T15:10:59.982Z,12.60
2018-02-18T15:13:28.362Z,12.27
2018-02-18T15:15:56.778Z,13.27
2018-02-18T15:18:25.534Z,12.75
2018-02-18T15:20:53.966Z,13.30
2018-02-18T15:23:22.368Z,13.73
2018-02-18T15:25:51.183Z,14.60
2018-02-18T15:28:19.659Z,14.20
2018-02-18T15:30:48.038Z,12.67
2018-02-18T15:33:16.930Z,14.77
2018-02-18T15:35:46.357Z,13.27
2018-02-18T15:38:15.029Z,13.13
2018-02-18T15:40:43.395Z,13.60
2018-02-18T15:43:12.831Z,13.07
2018-02-18T15:45:41.211Z,13.87
2018-02-18T15:48:09.868Z,12.98
2018-02-18T15:50:38.447Z,12.30
2018-02-18T15:53:07.108Z,11.63
2018-02-18T15:55:35.739Z,11.50
2018-02-18T15:58:04.124Z,11.10
2018-02-18T16:00:32.779Z,10.07
2018-02-18T16:03:01.453Z,8.80
2018-02-18T16:05:30.883Z,10.30
2018-02-18T16:07:59.278Z,11.70
2018-02-18T16:10:27.850Z,10.83
2018-02-18T16:12:56.240Z,12.43
2018-02-18T16:15:25.022Z,11.80
2018-02-18T16:17:53.634Z,10.77
2018-02-18T16:20:22.782Z,12.60
2018-02-18T16:22:51.280Z,12.97
2018-02-18T16:25:19.654Z,14.70
2018-02-18T16:27:48.324Z,15.68
2018-02-18T16:30:16.970Z,14.93
2018-02-18T16:32:45.635Z,15.05
2018-02-18T16:35:14.166Z,11.50
2018-02-18T16:37:42.368Z,11.83
2018-02-18T16:40:11.063Z,13.90
2018-02-18T16:42:39.796Z,14.70
2018-02-18T16:45:08.184Z,15.43
2018-02-18T16:47:36.701Z,14.50
2018-02-18T16:50:05.043Z,15.90
2018-02-18T16:52:33.664Z,14.80
2018-02-18T16:55:02.125Z,14.60
2018-02-18T16:57:30.530Z,16.93
2018-02-18T16:59:59.395Z,16.03
2018-02-18T17:02:27.783Z,17.40
2018-02-18T17:04:56.219Z,16.63
2018-02-18T17:07:24.595Z,17.17
2018-02-18T17:09:52.979Z,18.80
2018-02-18T17:12:22.407Z,18.00
2018-02-18T17:14:51.127Z,17.70
2018-02-18T17:17:19.778Z,19.08
2018-02-18T17:19:48.167Z,18.53
2018-02-18T17:22:16.822Z,20.15
2018-02-18T17:24:45.202Z,19.60
2018-02-18T17:27:13.583Z,19.77
2018-02-18T17:29:42.239Z,19.73
2018-02-18T17:32:10.891Z,20.20
2018-02-18T17:34:39.390Z,20.37
2018-02-18T17:37:09.166Z,20.70
2018-02-18T17:39:39.394Z,20.40
2018-02-18T17:42:07.777Z,18.80
2018-02-18T17:44:35.978Z,20.67
2018-02-18T17:47:04.414Z,19.73
2018-02-18T17:49:33.674Z,19.73
2018-02-18T17:52:02.258Z,20.10
2018-02-18T17:54:31.682Z,17.70
2018-02-18T17:57:00.358Z,19.35
2018-02-18T17:59:29.022Z,20.73
2018-02-18T18:01:58.465Z,20.20
2018-02-18T18:04:26.946Z,19.70
2018-02-18T18:06:55.609Z,20.20
2018-02-18T18:09:23.996Z,21.00
2018-02-18T18:11:52.372Z,21.87
2018-02-18T18:14:20.429Z,19.43
2018-02-18T18:16:48.646Z,20.10
2018-02-18T18:19:17.019Z,20.57
2018-02-18T18:21:45.793Z,20.10
2018-02-18T18:24:14.647Z,21.53
2018-02-18T18:26:43.150Z,20.73
2018-02-18T18:29:11.535Z,19.67
2018-02-18T18:31:40.414Z,21.00
2018-02-18T18:34:08.423Z,19.27
2018-02-18T18:36:37.805Z,19.57
2018-02-18T18:39:06.200Z,21.40
2018-02-18T18:41:35.410Z,22.33
2018-02-18T18:44:04.575Z,21.03
2018-02-18T18:46:32.983Z,21.37
2018-02-18T18:49:02.610Z,21.47
2018-02-18T18:51:31.011Z,21.80
2018-02-18T18:53:59.415Z,20.67
2018-02-18T18:56:27.803Z,21.93
2018-02-18T18:58:56.395Z,20.70
2018-02-18T19:01:25.104Z,23.03
2018-02-18T19:03:53.776Z,23.70
2018-02-18T19:06:22.936Z,22.20
2018-02-18T19:08:51.506Z,23.30
2018-02-18T19:11:20.702Z,22.23
2018-02-18T19:13:49.095Z,26.10
2018-02-18T19:16:18.278Z,23.37
2018-02-18T19:18:46.674Z,23.07
2018-02-18T19:21:15.340Z,22.05
2018-02-18T19:23:43.734Z,23.80
2018-02-18T19:26:12.416Z,23.97
2018-02-18T19:28:40.818Z,24.93
2018-02-18T19:31:09.198Z,23.80
2018-02-18T19:33:37.965Z,24.80
2018-02-18T19:36:06.715Z,24.33
2018-02-18T19:38:35.105Z,24.47
2018-02-18T19:41:04.305Z,24.00
2018-02-18T19:43:32.981Z,23.63
2018-02-18T19:46:01.655Z,22.50
2018-02-18T19:48:31.095Z,23.90
2018-02-18T19:50:59.765Z,23.67
2018-02-18T19:53:29.867Z,26.50
2018-02-18T19:55:59.084Z,24.00
2018-02-18T19:58:27.469Z,23.93
2018-02-18T20:00:56.058Z,24.60
2018-02-18T20:03:24.451Z,25.47
2018-02-18T20:05:52.827Z,25.53
2018-02-18T20:08:21.501Z,24.10
2018-02-18T20:10:50.969Z,24.90
2018-02-18T20:13:19.420Z,24.10
2018-02-18T20:15:48.494Z,24.92
2018-02-18T20:18:16.959Z,26.97
2018-02-18T20:20:45.343Z,27.80
2018-02-18T20:23:14.303Z,26.27
2018-02-18T20:25:42.986Z,27.23
2018-02-18T20:28:11.659Z,27.70
2018-02-18T20:30:40.134Z,26.17
2018-02-18T20:33:08.534Z,26.80
2018-02-18T20:35:37.262Z,27.33
2018-02-18T20:38:06.456Z,28.10
2018-02-18T20:40:34.670Z,27.00
2018-02-18T20:43:03.202Z,30.50
2018-02-18T20:45:31.666Z,27.47
2018-02-18T20:48:00.058Z,30.30
2018-02-18T20:50:28.460Z,30.47
2018-02-18T20:52:57.174Z,29.63
2018-02-18T20:55:25.706Z,29.30
2018-02-18T20:57:54.352Z,29.43
2018-02-18T21:00:23.028Z,29.37
2018-02-18T21:02:51.728Z,29.63
2018-02-18T21:05:20.388Z,28.42
2018-02-18T21:07:49.840Z,31.27
2018-02-18T21:10:18.243Z,29.60
2018-02-18T21:12:46.907Z,29.02
2018-02-18T21:15:16.391Z,29.60
2018-02-18T21:17:45.054Z,29.10
2018-02-18T21:20:14.493Z,28.65
2018-02-18T21:22:42.871Z,29.40
2018-02-18T21:25:11.651Z,31.32
2018-02-18T21:27:40.034Z,29.20
2018-02-18T21:30:08.471Z,29.50
2018-02-18T21:32:37.682Z,27.67
2018-02-18T21:35:06.367Z,28.03
2018-02-18T21:37:34.747Z,26.87
2018-02-18T21:40:04.171Z,28.08
2018-02-18T21:42:32.586Z,26.10
2018-02-18T21:45:01.238Z,27.83
2018-02-18T21:47:29.899Z,28.80
2018-02-18T21:49:58.274Z,27.40
2018-02-18T21:52:27.044Z,28.15
2018-02-18T21:54:56.474Z,30.45
2018-02-18T21:57:25.470Z,29.77
2018-02-18T21:59:54.174Z,30.40
2018-02-18T22:02:22.565Z,28.60
2018-02-18T22:04:51.253Z,30.80
2018-02-18T22:07:19.913Z,31.45
2018-02-18T22:09:48.433Z,27.03
2018-02-18T22:12:17.108Z,30.35
2018-02-18T22:14:45.774Z,32.70
2018-02-18T22:17:14.303Z,31.27
2018-02-18T22:19:43.725Z,31.90
2018-02-18T22:22:12.120Z,31.70
2018-02-18T22:24:40.987Z,29.27
2018-02-18T22:27:09.660Z,30.45
2018-02-18T22:29:38.239Z,30.93
2018-02-18T22:32:06.787Z,29.17
2018-02-18T22:34:35.465Z,27.15
2018-02-18T22:37:05.048Z,31.20
2018-02-18T22:39:33.723Z,28.33
2018-02-18T22:42:02.381Z,29.50
2018-02-18T22:44:31.811Z,26.37
2018-02-18T22:47:00.467Z,26.27
2018-02-18T22:49:28.542Z,28.33
2018-02-18T22:51:57.125Z,28.40
2018-02-18T22:54:25.655Z,29.30
2018-02-18T22:56:54.307Z,28.00
2018-02-18T22:59:22.691Z,27.70
2018-02-18T23:01:51.082Z,28.20
2018-02-18T23:04:19.472Z,27.10
2018-02-18T23:06:48.102Z,27.73
2018-02-18T23:09:16.490Z,26.80
2018-02-18T23:11:45.018Z,29.67
2018-02-18T23:14:13.673Z,25.73
2018-02-18T23:16:42.045Z,25.77
2018-02-18T23:19:10.734Z,26.75
2018-02-18T23:21:39.122Z,25.77
2018-02-18T23:24:07.785Z,26.75
2018-02-18T23:26:36.401Z,24.33
2018-02-18T23:29:05.050Z,26.08
2018-02-18T23:31:33.613Z,23.90
2018-02-18T23:34:02.151Z,23.67
2018-02-18T23:36:30.815Z,25.57
2018-02-18T23:38:58.970Z,22.50
2018-02-18T23:41:27.362Z,22.80
2018-02-18T23:43:56.015Z,25.05
2018-02-18T23:46:25.247Z,22.97
2018-02-18T23:48:54.189Z,22.75
2018-02-18T23:51:22.858Z,20.50
2018-02-18T23:53:52.002Z,21.93
2018-02-18T23:56:20.398Z,22.10
2018-02-18T23:58:48.839Z,20.37
